createdAt,value
2023-05-08T00:00:04.209Z,10.30
2023-05-08T00:01:04.208Z,10.50
2023-05-08T00:02:04.210Z,9.70
2023-05-08T00:03:04.241Z,10.10
2023-05-08T00:04:04.418Z,10.10
2023-05-08T00:05:04.296Z,9.80
2023-05-08T00:06:04.166Z,10.20
2023-05-08T00:07:04.156Z,10.40
2023-05-08T00:08:04.120Z,10.20
2023-05-08T00:09:04.117Z,10.10
2023-05-08T00:10:04.104Z,10.20
2023-05-08T00:11:04.124Z,10.00
2023-05-08T00:12:04.082Z,10.30
2023-05-08T00:13:04.225Z,10.50
2023-05-08T00:14:04.054Z,10.20
2023-05-08T00:15:04.044Z,10.70
2023-05-08T00:16:04.078Z,10.10
2023-05-08T00:17:04.136Z,10.20
2023-05-08T00:18:04.105Z,10.00
2023-05-08T00:19:04.004Z,10.90
2023-05-08T00:20:04.043Z,10.60
2023-05-08T00:21:04.003Z,10.30
2023-05-08T00:22:03.971Z,10.30
2023-05-08T00:23:03.963Z,10.40
2023-05-08T00:24:03.946Z,9.60
2023-05-08T00:25:03.951Z,9.60
2023-05-08T00:26:03.937Z,10.40
2023-05-08T00:27:03.927Z,9.70
2023-05-08T00:28:03.914Z,9.80
2023-05-08T00:29:06.046Z,10.60
2023-05-08T00:30:03.897Z,11.40
2023-05-08T00:31:03.876Z,10.10
2023-05-08T00:32:03.888Z,11.20
2023-05-08T00:33:03.901Z,10.60
2023-05-08T00:34:03.849Z,9.90
2023-05-08T00:35:03.847Z,10.40
2023-05-08T00:36:03.839Z,10.00
2023-05-08T00:37:03.819Z,10.00
2023-05-08T00:38:03.794Z,10.70
2023-05-08T00:39:03.805Z,10.90
2023-05-08T00:40:03.767Z,11.00
2023-05-08T00:41:03.769Z,10.50
2023-05-08T00:42:03.767Z,10.60
2023-05-08T00:43:03.744Z,10.90
2023-05-08T00:44:03.754Z,10.70
2023-05-08T00:45:03.709Z,10.00
2023-05-08T00:46:03.787Z,10.40
2023-05-08T00:47:03.700Z,9.90
2023-05-08T00:48:03.874Z,10.90
2023-05-08T00:49:03.727Z,10.70
2023-05-08T00:50:03.650Z,10.40
2023-05-08T00:51:03.665Z,10.50
2023-05-08T00:52:03.657Z,10.90
2023-05-08T00:53:03.674Z,10.80
2023-05-08T00:54:03.615Z,11.00
2023-05-08T00:55:03.656Z,10.60
2023-05-08T00:56:03.581Z,10.80
2023-05-08T00:57:03.589Z,11.00
2023-05-08T00:58:03.598Z,11.10
2023-05-08T00:59:03.558Z,10.80
2023-05-08T01:00:03.545Z,11.10
2023-05-08T01:01:03.663Z,10.60
2023-05-08T01:02:03.541Z,10.60
2023-05-08T01:03:03.646Z,10.50
2023-05-08T01:04:03.496Z,11.00
2023-05-08T01:05:03.497Z,10.70
2023-05-08T01:06:03.475Z,10.30
2023-05-08T01:07:03.490Z,11.60
2023-05-08T01:08:03.486Z,10.40
2023-05-08T01:09:03.451Z,10.70
2023-05-08T01:10:03.435Z,10.50
2023-05-08T01:11:03.442Z,11.00
2023-05-08T01:12:03.461Z,10.50
2023-05-08T01:13:03.501Z,10.20
2023-05-08T01:14:03.409Z,10.50
2023-05-08T01:15:03.383Z,11.20
2023-05-08T01:16:03.450Z,11.90
2023-05-08T01:17:03.374Z,11.00
2023-05-08T01:18:03.394Z,10.70
2023-05-08T01:19:03.346Z,10.70
2023-05-08T01:20:03.323Z,11.40
2023-05-08T01:21:03.328Z,10.80
2023-05-08T01:22:03.297Z,10.60
2023-05-08T01:23:03.298Z,10.70
2023-05-08T01:24:03.309Z,10.10
2023-05-08T01:25:03.315Z,10.10
2023-05-08T01:26:03.284Z,10.10
2023-05-08T01:27:03.245Z,11.10
2023-05-08T01:28:03.236Z,11.40
2023-05-08T01:29:03.239Z,11.10
2023-05-08T01:30:03.255Z,11.10
2023-05-08T01:31:03.236Z,11.10
2023-05-08T01:32:03.200Z,11.20
2023-05-08T01:33:03.238Z,10.90
2023-05-08T01:34:03.267Z,10.80
2023-05-08T01:35:03.178Z,11.10
2023-05-08T01:36:03.150Z,11.10
2023-05-08T01:37:03.136Z,11.60
2023-05-08T01:38:03.118Z,12.10
2023-05-08T01:39:03.155Z,11.20
2023-05-08T01:40:03.128Z,10.70
2023-05-08T01:41:03.096Z,11.00
2023-05-08T01:42:03.095Z,10.50
2023-05-08T01:43:03.071Z,10.40
2023-05-08T01:44:03.084Z,10.80
2023-05-08T01:45:03.065Z,10.90
2023-05-08T01:46:03.024Z,11.50
2023-05-08T01:47:03.062Z,11.30
2023-05-08T01:48:03.056Z,11.30
2023-05-08T01:49:03.034Z,11.50
2023-05-08T01:50:02.989Z,10.20
2023-05-08T01:51:02.978Z,11.00
2023-05-08T01:52:02.983Z,11.50
2023-05-08T01:53:02.957Z,10.80
2023-05-08T01:54:02.959Z,11.40
2023-05-08T01:55:02.929Z,10.60
2023-05-08T01:56:02.949Z,11.60
2023-05-08T01:57:02.908Z,11.20
2023-05-08T01:58:02.992Z,11.00
2023-05-08T01:59:02.906Z,11.20
2023-05-08T02:00:02.870Z,10.60
2023-05-08T02:01:02.945Z,10.80
2023-05-08T02:02:03.155Z,11.20
2023-05-08T02:03:02.896Z,10.90
2023-05-08T02:04:02.855Z,11.10
2023-05-08T02:05:02.824Z,11.80
2023-05-08T02:06:02.809Z,12.00
2023-05-08T02:07:02.824Z,10.80
2023-05-08T02:08:02.817Z,11.20
2023-05-08T02:09:02.776Z,11.00
2023-05-08T02:10:02.760Z,12.10
2023-05-08T02:11:02.768Z,11.20
2023-05-08T02:12:02.786Z,10.50
2023-05-08T02:13:02.802Z,10.00
2023-05-08T02:14:02.777Z,11.40
2023-05-08T02:15:02.769Z,10.70
2023-05-08T02:16:02.693Z,11.70
2023-05-08T02:17:02.936Z,11.20
2023-05-08T02:18:02.761Z,11.00
2023-05-08T02:19:02.661Z,11.00
2023-05-08T02:20:02.658Z,11.50
2023-05-08T02:21:02.659Z,11.30
2023-05-08T02:22:02.662Z,11.60
2023-05-08T02:23:02.660Z,11.40
2023-05-08T02:24:02.615Z,11.50
2023-05-08T02:25:02.594Z,10.80
2023-05-08T02:26:02.601Z,10.70
2023-05-08T02:27:02.583Z,11.70
2023-05-08T02:28:02.579Z,11.40
2023-05-08T02:29:02.560Z,11.80
2023-05-08T02:30:02.543Z,11.00
2023-05-08T02:31:03.026Z,11.10
2023-05-08T02:32:02.566Z,11.90
2023-05-08T02:33:02.532Z,11.40
2023-05-08T02:34:02.513Z,12.30
2023-05-08T02:35:03.754Z,11.50
2023-05-08T02:36:02.513Z,11.80
2023-05-08T02:37:02.463Z,11.20
2023-05-08T02:38:02.457Z,12.70
2023-05-08T02:39:02.445Z,12.20
2023-05-08T02:40:02.468Z,12.10
2023-05-08T02:41:02.433Z,11.60
2023-05-08T02:42:02.413Z,11.80
2023-05-08T02:43:02.405Z,12.00
2023-05-08T02:44:02.430Z,11.20
2023-05-08T02:45:02.406Z,12.10
2023-05-08T02:46:02.388Z,11.70
2023-05-08T02:47:02.365Z,12.20
2023-05-08T02:48:02.355Z,12.90
2023-05-08T02:49:02.601Z,12.90
2023-05-08T02:50:02.347Z,11.30
2023-05-08T02:51:02.306Z,12.30
2023-05-08T02:52:02.306Z,11.80
2023-05-08T02:53:02.301Z,11.40
2023-05-08T02:54:02.515Z,11.70
2023-05-08T02:55:02.312Z,12.00
2023-05-08T02:56:02.259Z,12.00
2023-05-08T02:57:02.246Z,12.50
2023-05-08T02:58:02.236Z,11.80
2023-05-08T02:59:02.237Z,11.60
2023-05-08T03:00:02.358Z,12.90
2023-05-08T03:01:02.242Z,12.60
2023-05-08T03:02:02.213Z,12.50
2023-05-08T03:03:02.327Z,12.80
2023-05-08T03:04:02.211Z,12.30
2023-05-08T03:05:02.162Z,13.40
2023-05-08T03:06:02.145Z,12.60
2023-05-08T03:07:02.141Z,12.70
2023-05-08T03:08:02.163Z,13.20
2023-05-08T03:09:02.160Z,12.80
2023-05-08T03:10:02.106Z,13.00
2023-05-08T03:11:02.089Z,12.50
2023-05-08T03:12:02.098Z,13.10
2023-05-08T03:13:02.128Z,13.30
2023-05-08T03:14:02.065Z,13.30
2023-05-08T03:15:02.065Z,12.90
2023-05-08T03:16:02.129Z,12.40
2023-05-08T03:17:02.475Z,12.20
2023-05-08T03:18:02.060Z,13.50
2023-05-08T03:19:02.029Z,13.20
2023-05-08T03:20:02.008Z,13.70
2023-05-08T03:21:01.988Z,14.30
2023-05-08T03:22:01.994Z,12.90
2023-05-08T03:23:01.969Z,13.60
2023-05-08T03:24:01.955Z,12.10
2023-05-08T03:25:01.955Z,12.90
2023-05-08T03:26:01.923Z,13.80
2023-05-08T03:27:01.928Z,13.20
2023-05-08T03:28:01.939Z,14.60
2023-05-08T03:29:01.890Z,14.50
2023-05-08T03:30:01.877Z,12.40
2023-05-08T03:31:01.938Z,14.00
2023-05-08T03:32:01.908Z,13.50
2023-05-08T03:33:01.896Z,14.00
2023-05-08T03:34:01.841Z,14.00
2023-05-08T03:35:01.846Z,13.80
2023-05-08T03:36:01.839Z,13.40
2023-05-08T03:37:01.800Z,13.70
2023-05-08T03:38:01.790Z,13.60
2023-05-08T03:39:01.785Z,15.30
2023-05-08T03:40:01.816Z,14.50
2023-05-08T03:41:01.820Z,14.70
2023-05-08T03:42:01.761Z,14.90
2023-05-08T03:43:01.752Z,14.70
2023-05-08T03:44:01.731Z,14.20
2023-05-08T03:45:01.728Z,13.50
2023-05-08T03:46:01.720Z,15.40
2023-05-08T03:47:01.788Z,14.20
2023-05-08T03:48:01.707Z,14.10
2023-05-08T03:49:01.672Z,14.40
2023-05-08T03:50:01.799Z,14.60
2023-05-08T03:51:01.652Z,13.60
2023-05-08T03:52:01.643Z,14.20
2023-05-08T03:53:01.646Z,15.80
2023-05-08T03:54:01.621Z,13.40
2023-05-08T03:55:01.708Z,13.60
2023-05-08T03:56:01.613Z,14.80
2023-05-08T03:57:01.594Z,14.30
2023-05-08T03:58:01.594Z,14.20
2023-05-08T03:59:01.594Z,14.10
2023-05-08T04:00:01.591Z,15.20
2023-05-08T04:01:01.575Z,14.40
2023-05-08T04:02:01.575Z,13.70
2023-05-08T04:03:01.600Z,14.90
2023-05-08T04:04:01.614Z,15.00
2023-05-08T04:05:01.505Z,14.40
2023-05-08T04:06:01.526Z,14.80
2023-05-08T04:07:01.490Z,14.50
2023-05-08T04:08:01.473Z,14.80
2023-05-08T04:09:01.502Z,14.80
2023-05-08T04:10:01.460Z,15.50
2023-05-08T04:11:01.449Z,15.70
2023-05-08T04:12:01.433Z,15.40
2023-05-08T04:13:01.491Z,16.30
2023-05-08T04:14:01.424Z,14.70
2023-05-08T04:15:01.436Z,15.30
2023-05-08T04:16:01.389Z,15.90
2023-05-08T04:17:01.458Z,14.60
2023-05-08T04:18:01.460Z,14.50
2023-05-08T04:19:01.372Z,15.80
2023-05-08T04:20:01.364Z,14.80
2023-05-08T04:21:01.336Z,14.30
2023-05-08T04:22:01.322Z,13.90
2023-05-08T04:23:01.330Z,15.00
2023-05-08T04:24:01.307Z,14.90
2023-05-08T04:25:01.291Z,14.50
2023-05-08T04:26:01.269Z,15.50
2023-05-08T04:27:01.280Z,15.00
2023-05-08T04:28:01.282Z,14.00
2023-05-08T04:29:01.242Z,13.20
2023-05-08T04:30:01.230Z,13.90
2023-05-08T04:31:01.218Z,13.90
2023-05-08T04:32:01.271Z,15.60
2023-05-08T04:33:01.329Z,14.50
2023-05-08T04:34:01.184Z,14.00
2023-05-08T04:35:01.172Z,14.60
2023-05-08T04:36:01.182Z,14.20
2023-05-08T04:37:01.185Z,14.90
2023-05-08T04:38:01.148Z,15.20
2023-05-08T04:39:01.133Z,14.50
2023-05-08T04:40:01.157Z,14.50
2023-05-08T04:41:01.197Z,13.60
2023-05-08T04:42:01.137Z,14.60
2023-05-08T04:43:01.098Z,15.10
2023-05-08T04:44:01.074Z,14.20
2023-05-08T04:45:01.063Z,15.10
2023-05-08T04:46:01.101Z,14.40
2023-05-08T04:47:01.048Z,14.80
2023-05-08T04:48:01.103Z,15.10
2023-05-08T04:49:01.026Z,14.40
2023-05-08T04:50:02.701Z,14.20
2023-05-08T04:51:01.009Z,13.50
2023-05-08T04:52:01.014Z,13.50
2023-05-08T04:53:00.999Z,15.20
2023-05-08T04:54:00.972Z,14.00
2023-05-08T04:55:00.965Z,14.10
2023-05-08T04:56:01.091Z,14.20
2023-05-08T04:57:00.923Z,14.20
2023-05-08T04:58:00.914Z,13.60
2023-05-08T04:59:00.950Z,14.40
2023-05-08T05:00:00.922Z,14.50
2023-05-08T05:01:00.885Z,14.30
2023-05-08T05:02:00.966Z,14.30
2023-05-08T05:03:00.911Z,14.30
2023-05-08T05:04:00.884Z,14.50
2023-05-08T05:05:00.864Z,14.40
2023-05-08T05:06:00.848Z,14.10
2023-05-08T05:07:00.819Z,14.70
2023-05-08T05:08:00.828Z,14.70
2023-05-08T05:09:00.809Z,14.00
2023-05-08T05:10:00.797Z,14.10
2023-05-08T05:11:00.785Z,14.20
2023-05-08T05:12:00.762Z,13.80
2023-05-08T05:13:00.769Z,14.50
2023-05-08T05:14:00.764Z,13.80
2023-05-08T05:15:00.745Z,13.90
2023-05-08T05:16:00.761Z,13.90
2023-05-08T05:17:00.711Z,14.40
2023-05-08T05:18:00.767Z,14.00
2023-05-08T05:19:00.713Z,14.20
2023-05-08T05:20:00.703Z,15.10
2023-05-08T05:21:00.663Z,13.90
2023-05-08T05:22:00.649Z,14.30
2023-05-08T05:23:00.654Z,13.40
2023-05-08T05:24:00.662Z,14.00
2023-05-08T05:25:00.621Z,14.00
2023-05-08T05:26:00.601Z,14.30
2023-05-08T05:27:00.602Z,13.80
2023-05-08T05:28:00.601Z,14.10
2023-05-08T05:29:00.586Z,14.30
2023-05-08T05:30:00.566Z,13.70
2023-05-08T05:31:00.644Z,14.10
2023-05-08T05:32:00.618Z,14.40
2023-05-08T05:33:00.599Z,13.10
2023-05-08T05:34:00.514Z,14.20
2023-05-08T05:35:00.500Z,13.00
2023-05-08T05:36:00.522Z,14.70
2023-05-08T05:37:00.503Z,13.80
2023-05-08T05:38:00.512Z,14.80
2023-05-08T05:39:00.453Z,15.40
2023-05-08T05:40:00.468Z,15.00
2023-05-08T05:41:00.438Z,14.30
2023-05-08T05:42:00.446Z,15.60
2023-05-08T05:43:00.404Z,14.70
2023-05-08T05:44:00.402Z,14.30
2023-05-08T05:45:00.385Z,14.80
2023-05-08T05:46:00.376Z,15.10
2023-05-08T05:47:00.492Z,13.60
2023-05-08T05:48:00.457Z,14.10
2023-05-08T05:49:00.348Z,14.50
2023-05-08T05:50:00.357Z,13.90
2023-05-08T05:51:00.376Z,14.30
2023-05-08T05:52:00.323Z,13.50
2023-05-08T05:53:00.293Z,13.40
2023-05-08T05:54:00.284Z,13.90
2023-05-08T05:55:00.288Z,14.20
2023-05-08T05:56:00.347Z,14.40
2023-05-08T05:57:00.257Z,14.30
2023-05-08T05:58:00.247Z,13.10
2023-05-08T05:59:00.239Z,13.80
2023-05-08T06:00:00.321Z,13.70
2023-05-08T06:01:00.235Z,14.60
2023-05-08T06:02:00.293Z,13.50
2023-05-08T06:03:00.410Z,12.30
2023-05-08T06:04:00.376Z,12.90
2023-05-08T06:05:00.209Z,12.80
2023-05-08T06:06:00.178Z,12.20
2023-05-08T06:07:00.180Z,12.50
2023-05-08T06:08:00.134Z,12.30
2023-05-08T06:09:00.154Z,12.60
2023-05-08T06:10:00.174Z,12.80
2023-05-08T06:11:00.137Z,12.10
2023-05-08T06:12:00.111Z,12.20
2023-05-08T06:13:00.196Z,11.60
2023-05-08T06:14:00.114Z,12.60
2023-05-08T06:15:00.063Z,12.10
2023-05-08T06:16:00.053Z,11.90
2023-05-08T06:17:00.113Z,12.40
2023-05-08T06:18:00.142Z,11.80
2023-05-08T06:19:00.034Z,12.00
2023-05-08T06:20:00.039Z,11.50
2023-05-08T06:21:00.013Z,10.80
2023-05-08T06:22:00.010Z,11.30
2023-05-08T06:22:59.970Z,11.50
2023-05-08T06:24:00.462Z,11.60
2023-05-08T06:24:59.953Z,11.00
2023-05-08T06:25:59.936Z,11.30
2023-05-08T06:26:59.912Z,10.80
2023-05-08T06:27:59.953Z,10.90
2023-05-08T06:29:00.028Z,11.10
2023-05-08T06:29:59.889Z,10.40
2023-05-08T06:30:59.941Z,10.90
2023-05-08T06:31:59.868Z,10.60
2023-05-08T06:32:59.885Z,10.40
2023-05-08T06:33:59.859Z,10.40
2023-05-08T06:34:59.830Z,10.70
2023-05-08T06:35:59.823Z,10.90
2023-05-08T06:36:59.813Z,10.80
2023-05-08T06:37:59.822Z,10.70
2023-05-08T06:38:59.787Z,11.20
2023-05-08T06:40:10.828Z,10.80
2023-05-08T06:41:00.771Z,11.20
2023-05-08T06:41:59.802Z,9.80
2023-05-08T06:42:59.755Z,10.60
2023-05-08T06:43:59.755Z,10.20
2023-05-08T06:44:59.729Z,10.80
2023-05-08T06:45:59.747Z,10.80
2023-05-08T06:46:59.710Z,11.40
2023-05-08T06:47:59.740Z,10.30
2023-05-08T06:48:59.679Z,10.50
2023-05-08T06:49:59.676Z,17.70
2023-05-08T06:50:59.656Z,9.80
2023-05-08T06:51:59.669Z,10.30
2023-05-08T06:52:59.632Z,10.90
2023-05-08T06:53:59.627Z,10.80
2023-05-08T06:54:59.622Z,10.80
2023-05-08T06:55:59.608Z,10.60
2023-05-08T06:56:59.605Z,10.40
2023-05-08T06:57:59.567Z,10.70
2023-05-08T06:59:07.666Z,10.90
2023-05-08T07:00:00.758Z,11.20
2023-05-08T07:00:59.552Z,10.40
2023-05-08T07:01:59.570Z,11.00
2023-05-08T07:02:59.622Z,10.70
2023-05-08T07:03:59.506Z,10.50
2023-05-08T07:04:59.524Z,10.50
2023-05-08T07:05:59.503Z,10.40
2023-05-08T07:06:59.495Z,10.70
2023-05-08T07:07:59.460Z,10.30
2023-05-08T07:08:59.465Z,10.10
2023-05-08T07:09:59.454Z,11.30
2023-05-08T07:10:59.466Z,10.60
2023-05-08T07:11:59.422Z,10.30
2023-05-08T07:12:59.438Z,10.40
2023-05-08T07:13:59.411Z,10.10
2023-05-08T07:14:59.687Z,9.90
2023-05-08T07:15:59.438Z,10.20
2023-05-08T07:16:59.373Z,10.10
2023-05-08T07:17:59.369Z,10.50
2023-05-08T07:18:59.396Z,9.10
2023-05-08T07:19:59.354Z,10.50
2023-05-08T07:20:59.318Z,10.30
2023-05-08T07:21:59.323Z,10.00
2023-05-08T07:22:59.302Z,10.00
2023-05-08T07:23:59.302Z,10.30
2023-05-08T07:24:59.295Z,10.00
2023-05-08T07:25:59.274Z,9.40
2023-05-08T07:26:59.264Z,9.30
2023-05-08T07:28:01.128Z,9.40
2023-05-08T07:28:59.245Z,9.00
2023-05-08T07:29:59.217Z,8.90
2023-05-08T07:30:59.248Z,9.00
2023-05-08T07:31:59.350Z,8.90
2023-05-08T07:32:59.209Z,9.00
2023-05-08T07:33:59.182Z,8.80
2023-05-08T07:34:59.168Z,8.40
2023-05-08T07:35:59.155Z,8.40
2023-05-08T07:36:59.151Z,9.10
2023-05-08T07:37:59.138Z,8.30
2023-05-08T07:38:59.138Z,10.10
2023-05-08T07:39:59.100Z,8.60
2023-05-08T07:40:59.125Z,8.10
2023-05-08T07:41:59.103Z,8.40
2023-05-08T07:42:59.152Z,10.40
2023-05-08T07:43:59.063Z,9.30
2023-05-08T07:44:59.066Z,9.20
2023-05-08T07:45:59.039Z,8.60
2023-05-08T07:46:59.075Z,8.70
2023-05-08T07:47:59.450Z,9.20
2023-05-08T07:48:59.018Z,8.60
2023-05-08T07:49:59.003Z,8.30
2023-05-08T07:50:59.009Z,8.90
2023-05-08T07:51:59.002Z,8.80
2023-05-08T07:52:58.978Z,8.30
2023-05-08T07:53:58.959Z,8.80
2023-05-08T07:54:58.941Z,8.80
2023-05-08T07:55:58.927Z,8.30
2023-05-08T07:56:58.932Z,8.70
2023-05-08T07:57:58.900Z,8.30
2023-05-08T07:58:58.898Z,8.40
2023-05-08T07:59:58.885Z,8.20
2023-05-08T08:00:58.870Z,8.60
2023-05-08T08:01:58.900Z,7.70
2023-05-08T08:02:58.929Z,7.40
2023-05-08T08:03:59.018Z,8.20
2023-05-08T08:04:58.830Z,8.10
2023-05-08T08:05:58.820Z,8.10
2023-05-08T08:06:58.828Z,7.10
2023-05-08T08:07:58.798Z,7.50
2023-05-08T08:08:58.802Z,7.50
2023-05-08T08:09:58.769Z,7.60
2023-05-08T08:10:58.863Z,9.00
2023-05-08T08:11:58.752Z,7.80
2023-05-08T08:12:58.824Z,8.00
2023-05-08T08:13:58.723Z,7.70
2023-05-08T08:14:58.727Z,7.40
2023-05-08T08:15:58.848Z,7.40
2023-05-08T08:16:58.742Z,8.10
2023-05-08T08:17:58.714Z,7.70
2023-05-08T08:18:58.674Z,7.90
2023-05-08T08:19:58.809Z,7.50
2023-05-08T08:20:58.666Z,7.20
2023-05-08T08:21:58.645Z,9.10
2023-05-08T08:22:58.631Z,7.40
2023-05-08T08:23:58.616Z,7.40
2023-05-08T08:24:58.625Z,7.70
2023-05-08T08:25:58.590Z,8.30
2023-05-08T08:26:58.581Z,6.70
2023-05-08T08:27:58.572Z,7.20
2023-05-08T08:28:58.567Z,7.90
2023-05-08T08:30:12.111Z,7.70
2023-05-08T08:30:59.568Z,7.00
2023-05-08T08:31:58.535Z,7.00
2023-05-08T08:32:58.579Z,6.70
2023-05-08T08:33:58.528Z,6.20
2023-05-08T08:34:58.523Z,7.00
2023-05-08T08:35:58.634Z,6.70
2023-05-08T08:36:58.474Z,6.50
2023-05-08T08:37:58.463Z,6.60
2023-05-08T08:38:58.465Z,8.50
2023-05-08T08:39:58.472Z,7.80
2023-05-08T08:40:58.439Z,7.50
2023-05-08T08:41:58.425Z,6.30
2023-05-08T08:42:58.429Z,6.40
2023-05-08T08:43:58.435Z,6.70
2023-05-08T08:44:58.408Z,6.60
2023-05-08T08:45:58.404Z,6.40
2023-05-08T08:46:58.402Z,6.50
2023-05-08T08:47:58.419Z,6.10
2023-05-08T08:48:58.354Z,5.90
2023-05-08T08:49:58.355Z,6.40
2023-05-08T08:50:58.453Z,6.60
2023-05-08T08:51:58.425Z,5.70
2023-05-08T08:52:58.321Z,6.00
2023-05-08T08:53:58.295Z,6.00
2023-05-08T08:54:58.284Z,6.30
2023-05-08T08:55:58.277Z,6.40
2023-05-08T08:56:58.280Z,6.20
2023-05-08T08:57:58.263Z,6.40
2023-05-08T08:58:58.259Z,6.50
2023-05-08T08:59:58.233Z,9.10
2023-05-08T09:00:58.221Z,6.50
2023-05-08T09:01:58.235Z,6.30
2023-05-08T09:02:58.255Z,6.40
2023-05-08T09:03:58.309Z,6.90
2023-05-08T09:04:58.172Z,6.00
2023-05-08T09:05:58.164Z,6.00
2023-05-08T09:06:58.161Z,7.00
2023-05-08T09:07:58.280Z,7.00
2023-05-08T09:08:58.134Z,5.80
2023-05-08T09:09:58.115Z,6.00
2023-05-08T09:10:58.114Z,5.90
2023-05-08T09:11:58.106Z,7.40
2023-05-08T09:12:58.120Z,6.10
2023-05-08T09:13:58.092Z,6.30
2023-05-08T09:14:58.055Z,6.30
2023-05-08T09:15:58.090Z,6.80
2023-05-08T09:16:58.044Z,6.80
2023-05-08T09:17:58.057Z,6.20
2023-05-08T09:18:58.026Z,6.80
2023-05-08T09:19:58.019Z,6.20
2023-05-08T09:20:58.077Z,6.50
2023-05-08T09:21:57.982Z,6.70
2023-05-08T09:22:57.983Z,6.70
2023-05-08T09:23:58.081Z,6.70
2023-05-08T09:24:57.976Z,6.80
2023-05-08T09:25:57.955Z,6.30
2023-05-08T09:26:57.926Z,6.50
2023-05-08T09:27:57.962Z,6.40
2023-05-08T09:28:57.914Z,6.20
2023-05-08T09:29:58.013Z,7.00
2023-05-08T09:30:57.948Z,6.60
2023-05-08T09:31:57.990Z,7.10
2023-05-08T09:32:57.996Z,7.50
2023-05-08T09:33:57.854Z,6.90
2023-05-08T09:34:57.859Z,6.60
2023-05-08T09:35:57.860Z,6.60
2023-05-08T09:36:57.816Z,7.10
2023-05-08T09:37:57.812Z,7.20
2023-05-08T09:38:57.811Z,6.00
2023-05-08T09:39:57.911Z,6.20
2023-05-08T09:40:57.783Z,7.80
2023-05-08T09:41:57.766Z,6.90
2023-05-08T09:42:57.748Z,7.10
2023-05-08T09:43:58.216Z,6.00
2023-05-08T09:44:57.725Z,7.40
2023-05-08T09:45:57.742Z,6.80
2023-05-08T09:46:57.711Z,6.10
2023-05-08T09:47:57.742Z,6.70
2023-05-08T09:48:57.735Z,6.80
2023-05-08T09:49:57.698Z,6.90
2023-05-08T09:50:57.661Z,6.60
2023-05-08T09:51:57.686Z,6.90
2023-05-08T09:52:57.666Z,6.60
2023-05-08T09:53:57.648Z,5.90
2023-05-08T09:54:57.622Z,6.40
2023-05-08T09:55:57.728Z,7.00
2023-05-08T09:56:57.602Z,6.20
2023-05-08T09:57:57.635Z,5.80
2023-05-08T09:58:57.571Z,6.30
2023-05-08T09:59:57.561Z,7.00
2023-05-08T10:00:57.613Z,6.30
2023-05-08T10:01:57.543Z,6.80
2023-05-08T10:02:57.634Z,7.00
2023-05-08T10:03:57.570Z,6.40
2023-05-08T10:04:57.515Z,6.60
2023-05-08T10:05:57.496Z,6.90
2023-05-08T10:06:57.517Z,6.00
2023-05-08T10:07:57.491Z,6.40
2023-05-08T10:08:57.464Z,6.90
2023-05-08T10:09:57.453Z,7.10
2023-05-08T10:10:57.446Z,6.80
2023-05-08T10:11:57.577Z,6.80
2023-05-08T10:12:57.428Z,6.90
2023-05-08T10:13:57.420Z,8.20
2023-05-08T10:14:57.394Z,6.90
2023-05-08T10:15:57.388Z,6.60
2023-05-08T10:16:57.430Z,7.30
2023-05-08T10:17:57.432Z,6.70
2023-05-08T10:18:57.351Z,7.00
2023-05-08T10:19:57.340Z,7.20
2023-05-08T10:20:57.350Z,7.00
2023-05-08T10:21:57.332Z,8.30
2023-05-08T10:22:57.310Z,7.20
2023-05-08T10:23:57.304Z,7.90
2023-05-08T10:24:57.284Z,8.60
2023-05-08T10:25:57.296Z,8.20
2023-05-08T10:27:06.458Z,7.20
2023-05-08T10:27:58.299Z,7.30
2023-05-08T10:28:57.242Z,7.30
2023-05-08T10:29:57.239Z,6.70
2023-05-08T10:30:57.267Z,7.00
2023-05-08T10:31:57.216Z,6.80
2023-05-08T10:32:57.217Z,7.10
2023-05-08T10:33:57.188Z,7.60
2023-05-08T10:34:57.185Z,6.90
2023-05-08T10:35:57.178Z,7.50
2023-05-08T10:36:57.159Z,7.10
2023-05-08T10:37:57.144Z,6.90
2023-05-08T10:38:57.133Z,6.90
2023-05-08T10:39:57.131Z,7.50
2023-05-08T10:40:57.102Z,7.70
2023-05-08T10:41:57.096Z,7.20
2023-05-08T10:42:57.087Z,7.20
2023-05-08T10:43:57.198Z,6.60
2023-05-08T10:44:57.080Z,7.50
2023-05-08T10:45:57.093Z,6.80
2023-05-08T10:46:57.098Z,6.50
2023-05-08T10:47:57.120Z,6.90
2023-05-08T10:48:57.037Z,5.90
2023-05-08T10:49:57.027Z,6.30
2023-05-08T10:50:57.000Z,6.80
2023-05-08T10:51:56.988Z,7.10
2023-05-08T10:52:56.983Z,7.40
2023-05-08T10:53:56.988Z,7.10
2023-05-08T10:54:56.958Z,7.10
2023-05-08T10:55:56.947Z,6.50
2023-05-08T10:56:56.935Z,6.60
2023-05-08T10:57:56.921Z,6.40
2023-05-08T10:58:56.923Z,6.50
2023-05-08T10:59:56.916Z,5.90
2023-05-08T11:00:56.901Z,6.50
2023-05-08T11:01:56.897Z,6.00
2023-05-08T11:02:56.936Z,7.40
2023-05-08T11:03:57.104Z,6.10
2023-05-08T11:04:56.860Z,6.20
2023-05-08T11:05:56.845Z,6.40
2023-05-08T11:06:56.826Z,6.50
2023-05-08T11:07:56.841Z,5.60
2023-05-08T11:08:59.136Z,6.20
2023-05-08T11:09:56.789Z,7.80
2023-05-08T11:10:56.782Z,5.40
2023-05-08T11:11:56.773Z,5.60
2023-05-08T11:12:56.810Z,6.10
2023-05-08T11:13:56.746Z,5.40
2023-05-08T11:14:56.753Z,5.60
2023-05-08T11:15:56.908Z,5.20
2023-05-08T11:16:56.734Z,5.70
2023-05-08T11:17:56.881Z,5.20
2023-05-08T11:18:56.691Z,5.10
2023-05-08T11:19:56.687Z,5.60
2023-05-08T11:20:56.670Z,6.10
2023-05-08T11:21:56.681Z,5.50
2023-05-08T11:22:56.659Z,4.90
2023-05-08T11:23:56.634Z,4.60
2023-05-08T11:24:56.625Z,4.90
2023-05-08T11:25:56.624Z,5.20
2023-05-08T11:26:56.618Z,5.70
2023-05-08T11:27:56.596Z,4.60
2023-05-08T11:28:56.578Z,4.90
2023-05-08T11:29:56.563Z,4.90
2023-05-08T11:30:56.574Z,4.60
2023-05-08T11:31:56.619Z,4.70
2023-05-08T11:32:56.608Z,4.60
2023-05-08T11:33:56.518Z,4.50
2023-05-08T11:34:56.515Z,4.30
2023-05-08T11:35:56.509Z,4.20
2023-05-08T11:36:56.494Z,3.90
2023-05-08T11:37:56.471Z,3.80
2023-05-08T11:38:56.471Z,4.30
2023-05-08T11:39:56.478Z,4.30
2023-05-08T11:40:56.462Z,4.30
2023-05-08T11:41:56.433Z,3.70
2023-05-08T11:42:56.439Z,3.70
2023-05-08T11:43:56.408Z,4.20
2023-05-08T11:44:56.418Z,4.00
2023-05-08T11:45:56.392Z,4.10
2023-05-08T11:46:56.500Z,5.00
2023-05-08T11:47:56.488Z,3.50
2023-05-08T11:48:56.357Z,4.00
2023-05-08T11:49:56.355Z,4.30
2023-05-08T11:50:56.325Z,3.80
2023-05-08T11:51:56.320Z,3.90
2023-05-08T11:52:56.311Z,4.10
2023-05-08T11:53:56.323Z,3.90
2023-05-08T11:54:56.317Z,3.70
2023-05-08T11:55:56.282Z,4.20
2023-05-08T11:56:56.274Z,3.50
2023-05-08T11:57:56.252Z,3.50
2023-05-08T11:58:56.265Z,3.70
2023-05-08T11:59:56.235Z,3.60
2023-05-08T12:00:56.264Z,3.40
2023-05-08T12:02:07.688Z,3.90
2023-05-08T12:02:57.300Z,3.60
2023-05-08T12:03:56.573Z,3.40
2023-05-08T12:04:56.247Z,3.30
2023-05-08T12:05:56.173Z,3.80
2023-05-08T12:06:56.156Z,3.60
2023-05-08T12:07:56.161Z,3.90
2023-05-08T12:08:56.148Z,3.70
2023-05-08T12:09:56.159Z,3.80
2023-05-08T12:10:56.132Z,3.20
2023-05-08T12:11:56.113Z,3.50
2023-05-08T12:12:56.129Z,3.40
2023-05-08T12:13:56.084Z,3.90
2023-05-08T12:14:56.073Z,3.50
2023-05-08T12:15:56.058Z,4.20
2023-05-08T12:16:56.107Z,3.50
2023-05-08T12:17:56.088Z,4.20
2023-05-08T12:18:56.021Z,6.30
2023-05-08T12:19:56.035Z,3.90
2023-05-08T12:20:56.004Z,3.40
2023-05-08T12:21:56.011Z,3.30
2023-05-08T12:22:56.003Z,3.60
2023-05-08T12:23:55.977Z,4.50
2023-05-08T12:24:55.959Z,3.30
2023-05-08T12:25:55.949Z,3.50
2023-05-08T12:26:55.945Z,4.00
2023-05-08T12:27:55.926Z,3.90
2023-05-08T12:28:55.936Z,6.00
2023-05-08T12:29:55.907Z,4.00
2023-05-08T12:30:55.956Z,4.30
2023-05-08T12:31:55.909Z,4.30
2023-05-08T12:32:55.916Z,3.90
2023-05-08T12:33:55.872Z,4.80
2023-05-08T12:34:55.845Z,4.50
2023-05-08T12:35:56.141Z,5.40
2023-05-08T12:36:55.841Z,4.80
2023-05-08T12:37:55.818Z,4.70
2023-05-08T12:38:55.807Z,4.60
2023-05-08T12:39:55.800Z,4.60
2023-05-08T12:40:55.815Z,7.20
2023-05-08T12:41:55.779Z,5.70
2023-05-08T12:42:55.760Z,7.00
2023-05-08T12:43:55.753Z,5.00
2023-05-08T12:44:55.738Z,4.70
2023-05-08T12:45:55.762Z,5.20
2023-05-08T12:46:55.773Z,5.50
2023-05-08T12:47:55.752Z,6.00
2023-05-08T12:48:55.691Z,5.90
2023-05-08T12:49:56.036Z,5.40
2023-05-08T12:50:55.690Z,5.60
2023-05-08T12:51:55.784Z,5.30
2023-05-08T12:52:55.645Z,5.10
2023-05-08T12:53:55.644Z,4.30
2023-05-08T12:54:55.690Z,4.10
2023-05-08T12:55:55.618Z,4.10
2023-05-08T12:56:55.616Z,11.30
2023-05-08T12:57:55.596Z,3.20
2023-05-08T12:58:55.582Z,3.80
2023-05-08T12:59:55.723Z,4.00
2023-05-08T13:00:55.570Z,4.40
2023-05-08T13:01:55.579Z,4.40
2023-05-08T13:02:55.607Z,3.70